South Kenner, Louisiana
Current Conditions -  °F | °C
As of 12:53 PM on Friday 31 Oct 2014 (Local Time) from KMSY Reporting Station
Few Clouds Few Clouds  
Wind Chill: 74°   Ceiling: Unl
Heat Index: 74°   Visibility: 10mi
Dew Point: 47°   Wind: 17mph
Humidity: 38%   Direction: 310°NW
Pressure: 30.04"   Gusts: 23mph
Location:  29.9137°N, 90.2078°W
Report Text: KMSY 311753Z 31015G20KT 10SM FEW040 23/08 A3004 RMK AO2 SLP174 T02330083 10233 20111 58012
Loading
Personal Weather Stations






























Interactive Weather Map
Tropical Storm Tracking
New forecast layout! Learn more

10-Day Weather Forecast

Advertisements
Track Severe Weather on mobile